Time;durP1;ratioP1;P1;durP2;ratioP2;P2;SDS_P1;SDS_P2;PMS_P1;PMS_P2;Temp;Humidity;BMP_temperature;BMP_pressure;BME280_temperature;BME280_humidity;BME280_pressure;Samples;Min_cycle;Max_cycle;Signal;HPM_P1;HPM_P2
2022/05/20 00:00:29;;;;;;;3.75;1.80;;;;;;;;;;5021502;28;20034;-76
2022/05/20 00:02:55;;;;;;;5.57;1.90;;;;;;;;;;5014759;28;20064;-77
2022/05/20 00:05:21;;;;;;;6.10;2.17;;;;;;;;;;5030967;28;20021;-77
2022/05/20 00:07:47;;;;;;;5.57;1.77;;;;;;;;;;5031873;28;20393;-79
2022/05/20 00:10:15;;;;;;;4.18;1.83;;;;;;;;;;5024308;28;20542;-77
2022/05/20 00:12:41;;;;;;;4.15;1.80;;;;;;;;;;5011524;28;20018;-77
2022/05/20 00:15:08;;;;;;;5.55;2.10;;;;;;;;;;5012166;28;20061;-79
2022/05/20 00:17:34;;;;;;;4.20;2.00;;;;;;;;;;5013077;28;20029;-77
2022/05/20 00:20:01;;;;;;;5.70;1.98;;;;;;;;;;5018726;28;20025;-79
2022/05/20 00:22:27;;;;;;;3.90;1.83;;;;;;;;;;5033061;28;20135;-79
2022/05/20 00:27:38;;;;;;;5.32;2.00;;;;;;;;;;5011972;28;20095;-77
2022/05/20 00:30:04;;;;;;;6.80;1.98;;;;;;;;;;5018198;28;20472;-77
2022/05/20 00:32:30;;;;;;;6.53;2.72;;;;;;;;;;5029311;28;20053;-77
2022/05/20 00:34:56;;;;;;;4.20;1.85;;;;;;;;;;5031037;28;20492;-76
2022/05/20 00:37:22;;;;;;;6.60;2.20;;;;;;;;;;5032139;28;20396;-77
2022/05/20 00:39:48;;;;;;;5.30;2.30;;;;;;;;;;5026593;28;20402;-77
2022/05/20 00:42:16;;;;;;;5.40;2.20;;;;;;;;;;5016901;28;20045;-79
2022/05/20 00:44:42;;;;;;;4.25;2.00;;;;;;;;;;5033331;28;20099;-78
2022/05/20 00:47:08;;;;;;;5.15;2.15;;;;;;;;;;5033549;28;20025;-78
2022/05/20 00:49:35;;;;;;;5.85;2.08;;;;;;;;;;5022384;28;20028;-77
2022/05/20 00:52:02;;;;;;;5.13;2.10;;;;;;;;;;5012885;28;20028;-77
2022/05/20 00:54:33;;;;;;;4.90;2.25;;;;;;;;;;5028436;28;20100;-78
2022/05/20 00:57:02;;;;;;;3.90;2.03;;;;;;;;;;5013271;28;20026;-77
2022/05/20 00:59:30;;;;;;;4.82;2.28;;;;;;;;;;5014988;28;20025;-77
2022/05/20 01:01:57;;;;;;;4.97;2.40;;;;;;;;;;5011016;28;20393;-77
2022/05/20 01:04:24;;;;;;;4.47;2.22;;;;;;;;;;5020899;28;20029;-77
2022/05/20 01:06:50;;;;;;;4.82;2.10;;;;;;;;;;5028381;28;20108;-78
2022/05/20 01:09:16;;;;;;;4.53;2.22;;;;;;;;;;5030056;28;20029;-77
2022/05/20 01:11:42;;;;;;;6.35;2.47;;;;;;;;;;5017433;28;20463;-78
2022/05/20 01:14:08;;;;;;;6.03;2.60;;;;;;;;;;5035510;28;20055;-77
2022/05/20 01:16:35;;;;;;;4.90;2.45;;;;;;;;;;5046480;28;20435;-78
2022/05/20 01:19:02;;;;;;;5.75;2.45;;;;;;;;;;5038911;28;20021;-78
2022/05/20 01:21:28;;;;;;;7.10;2.78;;;;;;;;;;5037180;28;20506;-79
2022/05/20 01:24:01;;;;;;;5.07;2.20;;;;;;;;;;5030984;28;20060;-79
2022/05/20 01:26:27;;;;;;;5.55;2.40;;;;;;;;;;5020376;28;20088;-79
2022/05/20 01:28:53;;;;;;;4.43;2.10;;;;;;;;;;5028388;28;20033;-79
2022/05/20 01:31:19;;;;;;;6.82;2.42;;;;;;;;;;5026063;28;20549;-76
2022/05/20 01:33:50;;;;;;;5.65;2.03;;;;;;;;;;5015991;28;20029;-79
2022/05/20 01:36:18;;;;;;;6.35;2.45;;;;;;;;;;5027007;28;20329;-79
2022/05/20 01:38:44;;;;;;;5.47;2.08;;;;;;;;;;5035401;28;20026;-78
2022/05/20 01:41:33;;;;;;;5.65;2.30;;;;;;;;;;5040299;28;20084;-78
2022/05/20 01:44:15;;;;;;;5.63;2.10;;;;;;;;;;5038924;28;20033;-79
2022/05/20 01:46:50;;;;;;;4.57;1.80;;;;;;;;;;5046455;28;20033;-79
2022/05/20 01:49:31;;;;;;;4.70;1.95;;;;;;;;;;5060553;28;20041;-79
2022/05/20 01:52:09;;;;;;;4.88;1.75;;;;;;;;;;5062795;28;20037;-79
2022/05/20 01:54:50;;;;;;;4.03;1.90;;;;;;;;;;5039355;28;20045;-79
2022/05/20 01:57:26;;;;;;;4.28;2.00;;;;;;;;;;5046012;28;20029;-79
2022/05/20 01:59:57;;;;;;;5.13;1.95;;;;;;;;;;5037867;28;20375;-79
2022/05/20 02:02:25;;;;;;;4.63;2.00;;;;;;;;;;5053250;28;20040;-79
2022/05/20 02:04:55;;;;;;;4.35;1.98;;;;;;;;;;5051836;28;20410;-80
2022/05/20 02:07:24;;;;;;;4.20;2.03;;;;;;;;;;5066086;28;20037;-78
2022/05/20 02:09:56;;;;;;;5.22;2.00;;;;;;;;;;5059161;28;20049;-79
2022/05/20 02:12:25;;;;;;;5.35;2.55;;;;;;;;;;5036259;28;20029;-78
2022/05/20 02:15:10;;;;;;;4.82;2.20;;;;;;;;;;5032744;28;20111;-79
2022/05/20 02:17:40;;;;;;;5.50;2.33;;;;;;;;;;5033050;28;20033;-79
2022/05/20 02:20:21;;;;;;;5.85;2.75;;;;;;;;;;5032263;28;20561;-78
2022/05/20 02:22:50;;;;;;;5.03;2.50;;;;;;;;;;5020760;28;20527;-79
2022/05/20 02:25:20;;;;;;;5.60;2.88;;;;;;;;;;5039561;28;20499;-79
2022/05/20 02:27:48;;;;;;;7.78;2.95;;;;;;;;;;5046008;28;20040;-78
2022/05/20 02:30:16;;;;;;;5.07;2.53;;;;;;;;;;5038370;28;20055;-79
2022/05/20 02:32:48;;;;;;;6.28;3.25;;;;;;;;;;5029354;28;21111;-79
2022/05/20 02:35:14;;;;;;;5.83;2.90;;;;;;;;;;5043830;28;20029;-80
2022/05/20 02:37:40;;;;;;;6.35;3.03;;;;;;;;;;5033859;28;20026;-79
2022/05/20 02:40:08;;;;;;;5.47;2.90;;;;;;;;;;5026878;28;20076;-79
2022/05/20 02:42:34;;;;;;;5.30;3.30;;;;;;;;;;5013692;28;20144;-79
2022/05/20 02:45:00;;;;;;;7.07;3.22;;;;;;;;;;5013943;28;20121;-80
2022/05/20 02:47:31;;;;;;;7.00;3.50;;;;;;;;;;5028842;28;20064;-79
2022/05/20 02:49:57;;;;;;;6.35;3.30;;;;;;;;;;5035785;28;20088;-79
2022/05/20 02:52:23;;;;;;;5.50;3.10;;;;;;;;;;5045599;28;20026;-79
2022/05/20 02:54:49;;;;;;;6.75;3.50;;;;;;;;;;5040912;28;20033;-78
2022/05/20 02:57:16;;;;;;;7.38;3.05;;;;;;;;;;5034537;28;20017;-78
2022/05/20 03:05:15;;;;;;;7.07;3.50;;;;;;;;;;5035615;28;20046;-78
2022/05/20 03:07:41;;;;;;;6.53;3.00;;;;;;;;;;5035588;28;20033;-78
2022/05/20 03:10:07;;;;;;;5.55;3.15;;;;;;;;;;5047648;28;20037;-79
2022/05/20 03:12:35;;;;;;;5.70;2.70;;;;;;;;;;5052798;28;20030;-79
2022/05/20 03:15:03;;;;;;;5.57;3.08;;;;;;;;;;5039531;28;20299;-79
2022/05/20 03:17:30;;;;;;;7.18;3.00;;;;;;;;;;5034113;28;20033;-79
2022/05/20 03:19:56;;;;;;;5.18;2.83;;;;;;;;;;5025665;28;20567;-78
2022/05/20 03:22:22;;;;;;;5.88;3.38;;;;;;;;;;5036163;28;20415;-78
2022/05/20 03:24:48;;;;;;;6.03;2.90;;;;;;;;;;5045020;28;20034;-79
2022/05/20 03:27:16;;;;;;;7.03;2.78;;;;;;;;;;5033089;28;20497;-78
2022/05/20 03:29:43;;;;;;;6.65;3.30;;;;;;;;;;5037416;28;20034;-79
2022/05/20 03:32:10;;;;;;;6.38;3.00;;;;;;;;;;5037894;28;20060;-78
2022/05/20 03:34:36;;;;;;;9.45;4.47;;;;;;;;;;5036122;28;20021;-79
2022/05/20 03:37:02;;;;;;;5.30;2.78;;;;;;;;;;5022172;28;20056;-79
2022/05/20 03:39:28;;;;;;;6.03;3.08;;;;;;;;;;5021266;28;20057;-78
2022/05/20 03:41:55;;;;;;;6.38;2.60;;;;;;;;;;5034666;28;20043;-77
2022/05/20 03:44:22;;;;;;;7.78;3.20;;;;;;;;;;5025678;28;20057;-77
2022/05/20 03:46:51;;;;;;;9.95;3.42;;;;;;;;;;5024527;28;20037;-78
2022/05/20 03:49:18;;;;;;;6.53;2.88;;;;;;;;;;5034458;28;20021;-77
2022/05/20 03:51:45;;;;;;;6.22;2.97;;;;;;;;;;5034957;28;20069;-78
2022/05/20 03:54:11;;;;;;;7.00;2.80;;;;;;;;;;5027323;28;20081;-77
2022/05/20 03:56:40;;;;;;;5.75;2.78;;;;;;;;;;5026268;28;20026;-78
2022/05/20 03:59:08;;;;;;;6.47;2.83;;;;;;;;;;5026055;28;20022;-78
2022/05/20 04:04:19;;;;;;;6.30;3.00;;;;;;;;;;5017759;28;20041;-78
2022/05/20 04:06:45;;;;;;;6.70;3.45;;;;;;;;;;5021946;28;20087;-78
2022/05/20 04:09:11;;;;;;;7.18;3.22;;;;;;;;;;5035286;28;20021;-78
2022/05/20 04:11:38;;;;;;;10.40;4.40;;;;;;;;;;5022227;28;20472;-78
2022/05/20 04:14:04;;;;;;;8.55;3.40;;;;;;;;;;5033370;28;20528;-78
2022/05/20 04:16:30;;;;;;;8.02;3.45;;;;;;;;;;5021104;28;20069;-78
2022/05/20 04:18:56;;;;;;;7.80;3.30;;;;;;;;;;5037561;28;20026;-77
2022/05/20 04:21:22;;;;;;;26.30;7.00;;;;;;;;;;5018053;28;20197;-78
2022/05/20 04:23:48;;;;;;;7.18;3.35;;;;;;;;;;5027200;28;20037;-78
2022/05/20 04:26:14;;;;;;;6.78;3.92;;;;;;;;;;5018038;28;20117;-79
2022/05/20 04:28:40;;;;;;;7.72;3.33;;;;;;;;;;5016947;28;20033;-78
2022/05/20 04:31:08;;;;;;;10.05;4.03;;;;;;;;;;5016776;28;20045;-78
2022/05/20 04:33:34;;;;;;;6.22;3.28;;;;;;;;;;5028501;28;20048;-78
2022/05/20 04:36:00;;;;;;;6.18;3.25;;;;;;;;;;5031434;28;20423;-77
2022/05/20 04:38:26;;;;;;;8.68;4.00;;;;;;;;;;5021712;28;20026;-78
2022/05/20 04:49:09;;;;;;;6.38;4.00;;;;;;;;;;5015907;28;20061;-79
2022/05/20 04:51:35;;;;;;;7.80;3.78;;;;;;;;;;5025446;28;20641;-79
2022/05/20 04:56:47;;;;;;;8.30;4.15;;;;;;;;;;5019594;28;20057;-79
2022/05/20 04:59:13;;;;;;;8.20;4.10;;;;;;;;;;5026604;28;20101;-79
2022/05/20 05:01:40;;;;;;;6.50;3.65;;;;;;;;;;5029116;28;20021;-78
2022/05/20 05:04:06;;;;;;;8.25;4.18;;;;;;;;;;5022668;28;20026;-79
2022/05/20 05:06:32;;;;;;;11.13;4.00;;;;;;;;;;5021022;28;20029;-77
2022/05/20 05:08:58;;;;;;;8.70;4.60;;;;;;;;;;5026872;28;20036;-79
2022/05/20 05:11:24;;;;;;;8.43;4.20;;;;;;;;;;5028190;28;20014;-79
2022/05/20 05:13:50;;;;;;;7.28;3.53;;;;;;;;;;5026449;28;20121;-78
2022/05/20 05:16:16;;;;;;;7.53;3.63;;;;;;;;;;5029053;28;20033;-78
2022/05/20 05:18:42;;;;;;;9.55;3.63;;;;;;;;;;5033550;28;20056;-78
2022/05/20 05:21:08;;;;;;;9.73;3.85;;;;;;;;;;5034427;28;20025;-78
2022/05/20 05:23:34;;;;;;;10.30;4.45;;;;;;;;;;5035299;28;20495;-78
2022/05/20 05:26:00;;;;;;;10.48;4.35;;;;;;;;;;5020525;28;20030;-79
2022/05/20 05:28:26;;;;;;;10.73;4.28;;;;;;;;;;5028385;28;20072;-78
2022/05/20 05:30:53;;;;;;;13.70;5.55;;;;;;;;;;5021305;28;20499;-78
2022/05/20 05:33:21;;;;;;;10.38;4.28;;;;;;;;;;5022657;28;20030;-78
2022/05/20 05:35:47;;;;;;;11.65;4.30;;;;;;;;;;5032854;28;20029;-78
2022/05/20 05:38:13;;;;;;;13.60;4.57;;;;;;;;;;5023556;28;20026;-78
2022/05/20 05:40:39;;;;;;;20.30;5.80;;;;;;;;;;5026728;28;20563;-78
2022/05/20 05:43:05;;;;;;;18.08;5.50;;;;;;;;;;5020246;28;20033;-78
2022/05/20 05:45:32;;;;;;;31.75;8.10;;;;;;;;;;5027885;28;20137;-78
2022/05/20 05:47:59;;;;;;;30.77;7.03;;;;;;;;;;5019041;28;20101;-79
2022/05/20 05:50:26;;;;;;;22.70;5.18;;;;;;;;;;5021448;28;20056;-78
2022/05/20 05:52:56;;;;;;;22.33;5.22;;;;;;;;;;5025218;28;20022;-78
2022/05/20 05:55:22;;;;;;;13.90;5.03;;;;;;;;;;5023082;28;20045;-78
2022/05/20 05:57:48;;;;;;;14.70;5.07;;;;;;;;;;5028229;28;20594;-78
2022/05/20 06:00:14;;;;;;;11.57;4.72;;;;;;;;;;5024530;28;20029;-78
2022/05/20 06:02:40;;;;;;;15.88;5.13;;;;;;;;;;5031036;28;20032;-79
2022/05/20 06:05:06;;;;;;;11.98;4.40;;;;;;;;;;5031219;28;20029;-79
2022/05/20 06:07:32;;;;;;;15.63;5.20;;;;;;;;;;5024745;28;20029;-79
2022/05/20 06:09:58;;;;;;;8.70;4.78;;;;;;;;;;5029809;28;20021;-79
2022/05/20 06:12:24;;;;;;;10.60;4.22;;;;;;;;;;5019513;28;20578;-78
2022/05/20 06:14:50;;;;;;;11.60;4.43;;;;;;;;;;5025755;28;20022;-78
2022/05/20 06:17:16;;;;;;;8.77;4.45;;;;;;;;;;5032050;28;20022;-78
2022/05/20 06:19:43;;;;;;;10.23;4.85;;;;;;;;;;5041982;28;20021;-78
2022/05/20 06:22:09;;;;;;;7.57;3.75;;;;;;;;;;5028626;28;20559;-78
2022/05/20 06:24:35;;;;;;;13.07;4.03;;;;;;;;;;5033586;28;20025;-78
2022/05/20 06:27:02;;;;;;;8.25;3.83;;;;;;;;;;5033461;28;20090;-79
2022/05/20 06:29:28;;;;;;;9.07;4.00;;;;;;;;;;5035209;28;20018;-79
2022/05/20 06:31:54;;;;;;;10.02;4.43;;;;;;;;;;5026532;28;20370;-79
2022/05/20 06:34:20;;;;;;;7.55;3.72;;;;;;;;;;5032531;28;20037;-80
2022/05/20 06:39:49;;;;;;;8.80;3.90;;;;;;;;;;5033057;28;20063;-78
2022/05/20 06:42:15;;;;;;;9.98;3.80;;;;;;;;;;5035134;28;20021;-80
2022/05/20 06:44:41;;;;;;;9.10;4.05;;;;;;;;;;5024745;28;20029;-80
2022/05/20 06:47:07;;;;;;;7.70;3.80;;;;;;;;;;5025832;28;20029;-79
2022/05/20 06:49:35;;;;;;;8.00;3.90;;;;;;;;;;5032701;28;20076;-78
2022/05/20 06:52:01;;;;;;;7.18;3.70;;;;;;;;;;5028006;28;20033;-79
2022/05/20 06:54:28;;;;;;;9.82;4.20;;;;;;;;;;5022014;28;20053;-80
2022/05/20 06:56:54;;;;;;;11.20;4.50;;;;;;;;;;5025078;28;20025;-79
2022/05/20 06:59:20;;;;;;;7.15;3.53;;;;;;;;;;5045807;28;20032;-78
2022/05/20 07:01:46;;;;;;;7.88;4.20;;;;;;;;;;5037305;28;20033;-78
2022/05/20 07:04:12;;;;;;;7.05;4.38;;;;;;;;;;5035890;28;20083;-79
2022/05/20 07:06:39;;;;;;;8.05;4.10;;;;;;;;;;5036767;28;20032;-78
2022/05/20 07:09:06;;;;;;;10.68;4.45;;;;;;;;;;5035150;28;20026;-79
2022/05/20 07:11:32;;;;;;;9.35;4.15;;;;;;;;;;5037382;28;20044;-77
2022/05/20 07:13:58;;;;;;;8.73;3.97;;;;;;;;;;5041425;28;20040;-79
2022/05/20 07:16:25;;;;;;;10.23;4.18;;;;;;;;;;5042490;28;20025;-79
2022/05/20 07:18:52;;;;;;;11.18;4.63;;;;;;;;;;5035278;28;20032;-79
2022/05/20 07:21:18;;;;;;;11.38;4.50;;;;;;;;;;5033750;28;20079;-79
2022/05/20 07:23:44;;;;;;;9.25;4.20;;;;;;;;;;5038976;28;20124;-78
2022/05/20 07:26:10;;;;;;;8.13;4.18;;;;;;;;;;5041886;28;20030;-78
2022/05/20 07:28:36;;;;;;;8.90;4.68;;;;;;;;;;5027671;28;20046;-78
2022/05/20 07:31:02;;;;;;;11.43;4.60;;;;;;;;;;5027748;28;20033;-78
2022/05/20 07:33:30;;;;;;;7.68;4.43;;;;;;;;;;5038794;28;20025;-78
2022/05/20 07:35:56;;;;;;;9.27;4.88;;;;;;;;;;5028237;28;20087;-79
2022/05/20 07:38:23;;;;;;;8.30;4.65;;;;;;;;;;5024741;28;20030;-78
2022/05/20 07:40:50;;;;;;;10.88;5.78;;;;;;;;;;5036444;28;20026;-79
2022/05/20 07:43:20;;;;;;;10.32;5.75;;;;;;;;;;5034448;28;20515;-78
2022/05/20 07:45:46;;;;;;;10.52;5.93;;;;;;;;;;5034096;28;20062;-78
2022/05/20 07:48:12;;;;;;;7.95;5.20;;;;;;;;;;5028474;28;20030;-78
2022/05/20 07:50:42;;;;;;;9.88;5.88;;;;;;;;;;5028363;28;20460;-77
2022/05/20 07:53:21;;;;;;;10.20;5.97;;;;;;;;;;5037503;28;20555;-79
2022/05/20 07:55:53;;;;;;;8.50;5.80;;;;;;;;;;5037962;28;20029;-79
2022/05/20 07:58:20;;;;;;;12.45;6.35;;;;;;;;;;5035207;28;20013;-79
2022/05/20 08:00:46;;;;;;;9.30;6.40;;;;;;;;;;5031073;28;20124;-80
2022/05/20 08:03:14;;;;;;;11.90;6.05;;;;;;;;;;5036096;28;20119;-79
2022/05/20 08:05:40;;;;;;;7.85;6.00;;;;;;;;;;5045348;28;20021;-79
2022/05/20 08:08:07;;;;;;;10.63;5.40;;;;;;;;;;5037100;28;20029;-78
2022/05/20 08:10:35;;;;;;;10.30;5.63;;;;;;;;;;5034388;28;20411;-80
2022/05/20 08:13:02;;;;;;;11.60;6.63;;;;;;;;;;5022584;28;20026;-79
2022/05/20 08:15:29;;;;;;;10.15;6.70;;;;;;;;;;5036387;28;20022;-79
2022/05/20 08:17:56;;;;;;;9.27;6.40;;;;;;;;;;5034096;28;20060;-80
2022/05/20 08:20:25;;;;;;;11.18;6.40;;;;;;;;;;5026465;28;20033;-80
2022/05/20 08:22:53;;;;;;;10.00;5.55;;;;;;;;;;5033099;28;20560;-79
2022/05/20 08:25:19;;;;;;;15.25;7.13;;;;;;;;;;5028013;28;20044;-80
2022/05/20 08:27:45;;;;;;;10.30;6.97;;;;;;;;;;5031615;28;20033;-81
2022/05/20 08:30:15;;;;;;;9.43;6.30;;;;;;;;;;5019454;28;20044;-81
2022/05/20 08:32:41;;;;;;;10.23;8.13;;;;;;;;;;5035294;28;20025;-81
2022/05/20 08:35:09;;;;;;;11.70;7.55;;;;;;;;;;5030017;28;20018;-81
2022/05/20 08:37:38;;;;;;;12.35;6.70;;;;;;;;;;5032425;28;20025;-80
2022/05/20 08:40:04;;;;;;;9.23;6.85;;;;;;;;;;5036964;28;20025;-79
2022/05/20 08:42:31;;;;;;;8.38;6.15;;;;;;;;;;5038840;28;20029;-79
2022/05/20 08:44:57;;;;;;;9.98;6.05;;;;;;;;;;5035629;28;20036;-79
2022/05/20 08:47:23;;;;;;;8.88;6.38;;;;;;;;;;5035470;28;20024;-79
2022/05/20 08:49:54;;;;;;;9.38;7.00;;;;;;;;;;5036927;28;20068;-81
2022/05/20 08:52:21;;;;;;;10.02;6.45;;;;;;;;;;5030191;28;20030;-81
2022/05/20 08:54:47;;;;;;;15.15;6.72;;;;;;;;;;5032785;28;20025;-82
2022/05/20 08:57:19;;;;;;;10.02;6.60;;;;;;;;;;5044168;28;20053;-80
2022/05/20 08:59:45;;;;;;;11.93;6.13;;;;;;;;;;5028245;28;20033;-80
2022/05/20 09:02:11;;;;;;;8.52;6.10;;;;;;;;;;5016415;28;20030;-79
2022/05/20 09:04:37;;;;;;;7.82;5.95;;;;;;;;;;5023864;28;20064;-81
2022/05/20 09:07:05;;;;;;;10.65;6.40;;;;;;;;;;5022944;28;20034;-80
2022/05/20 09:09:40;;;;;;;10.18;6.22;;;;;;;;;;5034056;28;20287;-80
2022/05/20 09:12:06;;;;;;;8.50;5.88;;;;;;;;;;5033640;28;20538;-82
2022/05/20 09:17:21;;;;;;;9.77;6.88;;;;;;;;;;5028505;28;20044;-79
2022/05/20 09:20:01;;;;;;;8.45;5.85;;;;;;;;;;5025996;28;20055;-79
2022/05/20 09:22:28;;;;;;;7.80;6.25;;;;;;;;;;5012175;28;20038;-79
2022/05/20 09:24:55;;;;;;;7.78;6.10;;;;;;;;;;5018218;28;20095;-79
2022/05/20 09:27:29;;;;;;;9.95;5.82;;;;;;;;;;5029497;28;20021;-78
2022/05/20 09:30:03;;;;;;;8.90;6.30;;;;;;;;;;5040452;28;20025;-78
2022/05/20 09:32:37;;;;;;;7.45;6.10;;;;;;;;;;5038148;28;20057;-78
2022/05/20 09:35:07;;;;;;;10.75;6.30;;;;;;;;;;5041532;28;20025;-78
2022/05/20 09:37:34;;;;;;;12.23;6.03;;;;;;;;;;5041922;28;20426;-79
2022/05/20 09:40:15;;;;;;;9.02;5.63;;;;;;;;;;5037476;28;20464;-78
2022/05/20 09:42:56;;;;;;;8.75;6.35;;;;;;;;;;5033224;28;20026;-80
2022/05/20 09:45:22;;;;;;;7.03;4.95;;;;;;;;;;5037652;28;20028;-79
2022/05/20 09:47:50;;;;;;;6.68;4.70;;;;;;;;;;5033817;28;20025;-80
2022/05/20 09:50:45;;;;;;;6.03;4.30;;;;;;;;;;5029674;28;20044;-79
2022/05/20 09:53:11;;;;;;;11.48;5.47;;;;;;;;;;5030526;28;20574;-79
2022/05/20 09:55:37;;;;;;;6.80;4.57;;;;;;;;;;5030668;28;20037;-80
2022/05/20 09:58:13;;;;;;;6.82;4.30;;;;;;;;;;5032086;28;20076;-79
2022/05/20 10:00:39;;;;;;;6.07;5.03;;;;;;;;;;5042876;28;20022;-79
2022/05/20 10:03:11;;;;;;;7.78;4.47;;;;;;;;;;5040766;28;20048;-78
2022/05/20 10:05:55;;;;;;;5.70;4.25;;;;;;;;;;5038272;28;20030;-79
2022/05/20 10:08:27;;;;;;;7.40;4.30;;;;;;;;;;5030315;28;20488;-79
2022/05/20 10:11:04;;;;;;;6.07;4.18;;;;;;;;;;5023701;28;20056;-78
2022/05/20 10:13:36;;;;;;;6.13;4.25;;;;;;;;;;5028413;28;20038;-78
2022/05/20 10:16:14;;;;;;;7.53;4.07;;;;;;;;;;5023651;28;20025;-78
2022/05/20 10:19:00;;;;;;;8.52;4.40;;;;;;;;;;5021829;28;20084;-79
2022/05/20 10:21:45;;;;;;;5.55;4.25;;;;;;;;;;5021188;28;20052;-80
2022/05/20 10:24:29;;;;;;;6.65;4.13;;;;;;;;;;5031562;28;20061;-81
2022/05/20 10:27:00;;;;;;;5.95;3.92;;;;;;;;;;5041434;28;20032;-78
2022/05/20 10:32:34;;;;;;;5.28;4.13;;;;;;;;;;5032653;28;20041;-78
2022/05/20 10:35:01;;;;;;;6.07;4.18;;;;;;;;;;5021047;28;20029;-79
2022/05/20 10:37:34;;;;;;;6.53;4.07;;;;;;;;;;5035299;28;20491;-81
2022/05/20 10:40:28;;;;;;;5.03;4.30;;;;;;;;;;5037878;28;20026;-80
2022/05/20 10:43:04;;;;;;;6.18;4.20;;;;;;;;;;5036830;28;20072;-81
2022/05/20 10:48:44;;;;;;;6.07;4.07;;;;;;;;;;5023618;28;20088;-80
2022/05/20 10:51:16;;;;;;;5.88;4.00;;;;;;;;;;5021344;28;20056;-82
2022/05/20 10:53:42;;;;;;;5.43;3.95;;;;;;;;;;5026024;28;20022;-84
2022/05/20 10:56:14;;;;;;;6.82;4.63;;;;;;;;;;5045873;28;20051;-79
2022/05/20 10:58:40;;;;;;;;;;;;;;;;;;5034660;28;20060;-81
2022/05/20 11:01:14;;;;;;;5.55;3.90;;;;;;;;;;5020120;28;20391;-80
2022/05/20 11:03:53;;;;;;;5.70;3.80;;;;;;;;;;5028442;28;20036;-79
2022/05/20 11:06:25;;;;;;;6.05;4.00;;;;;;;;;;5046860;28;20025;-79
2022/05/20 11:09:07;;;;;;;6.38;3.80;;;;;;;;;;5040049;28;20044;-79
2022/05/20 11:11:34;;;;;;;5.28;3.72;;;;;;;;;;5040492;28;20021;-79
2022/05/20 11:14:21;;;;;;;5.82;3.90;;;;;;;;;;5039856;28;20014;-80
2022/05/20 11:16:57;;;;;;;5.95;4.07;;;;;;;;;;5030849;28;20091;-80
2022/05/20 11:19:33;;;;;;;8.27;4.30;;;;;;;;;;5036867;28;20523;-82
2022/05/20 11:22:19;;;;;;;6.78;4.03;;;;;;;;;;5026847;28;20483;-80
2022/05/20 11:24:53;;;;;;;6.10;4.50;;;;;;;;;;5023160;28;20053;-80
2022/05/20 11:27:28;;;;;;;5.22;3.70;;;;;;;;;;5028683;28;20025;-80
2022/05/20 11:29:54;;;;;;;5.55;4.10;;;;;;;;;;5042936;28;20036;-80
2022/05/20 11:32:32;;;;;;;5.95;4.57;;;;;;;;;;5030811;28;20025;-80
2022/05/20 11:35:04;;;;;;;6.13;4.32;;;;;;;;;;5027496;28;21357;-79
2022/05/20 11:37:49;;;;;;;7.03;4.32;;;;;;;;;;5019164;28;20026;-79
2022/05/20 11:40:34;;;;;;;10.18;4.80;;;;;;;;;;5031657;28;20033;-80
2022/05/20 11:43:05;;;;;;;5.70;4.15;;;;;;;;;;5026925;28;20053;-80
2022/05/20 11:45:31;;;;;;;7.13;4.53;;;;;;;;;;5022707;28;20416;-80
2022/05/20 11:47:57;;;;;;;8.93;4.35;;;;;;;;;;5039641;28;20045;-81
2022/05/20 11:50:27;;;;;;;6.60;4.70;;;;;;;;;;5044768;28;20026;-80
2022/05/20 11:53:16;;;;;;;5.68;4.18;;;;;;;;;;5039738;28;20026;-81
2022/05/20 11:55:42;;;;;;;5.80;4.07;;;;;;;;;;5045966;28;20083;-81
2022/05/20 11:58:14;;;;;;;5.50;4.18;;;;;;;;;;5032434;28;20026;-80
2022/05/20 12:00:41;;;;;;;4.80;3.72;;;;;;;;;;5027291;28;20029;-81
2022/05/20 12:03:14;;;;;;;5.85;4.32;;;;;;;;;;5023470;28;20034;-81
2022/05/20 12:05:43;;;;;;;6.60;4.35;;;;;;;;;;5033322;28;20537;-82
2022/05/20 12:08:29;;;;;;;6.28;4.38;;;;;;;;;;5025624;28;20034;-82
2022/05/20 12:10:55;;;;;;;6.50;4.47;;;;;;;;;;5032168;28;20079;-81
2022/05/20 12:13:25;;;;;;;7.25;4.20;;;;;;;;;;5036449;28;20040;-83
2022/05/20 12:16:10;;;;;;;5.65;3.97;;;;;;;;;;5031336;28;20029;-84
2022/05/20 12:24:31;;;;;;;6.28;4.25;;;;;;;;;;5021306;28;20380;-83
2022/05/20 12:26:58;;;;;;;6.43;4.43;;;;;;;;;;5022315;28;20022;-83
2022/05/20 12:29:37;;;;;;;5.55;4.35;;;;;;;;;;5022757;28;20132;-83
2022/05/20 12:32:26;;;;;;;5.70;4.60;;;;;;;;;;5039430;28;20018;-84
2022/05/20 12:35:04;;;;;;;6.93;4.68;;;;;;;;;;5039688;28;20029;-84
2022/05/20 12:37:42;;;;;;;7.82;4.63;;;;;;;;;;5034861;28;20061;-82
2022/05/20 12:40:20;;;;;;;5.15;4.30;;;;;;;;;;5030962;28;20030;-84
2022/05/20 12:42:55;;;;;;;7.30;4.63;;;;;;;;;;5041408;28;20044;-81
2022/05/20 12:45:22;;;;;;;6.95;4.82;;;;;;;;;;5029064;28;20018;-82
2022/05/20 12:47:48;;;;;;;8.15;5.50;;;;;;;;;;5030587;28;20040;-82
2022/05/20 12:50:14;;;;;;;6.50;4.70;;;;;;;;;;5019785;28;20022;-81
2022/05/20 12:52:48;;;;;;;6.50;4.47;;;;;;;;;;5023428;28;20030;-82
2022/05/20 12:55:22;;;;;;;6.18;4.80;;;;;;;;;;5029972;28;20038;-82
2022/05/20 12:57:55;;;;;;;5.32;4.20;;;;;;;;;;5030474;28;20032;-82
2022/05/20 13:00:26;;;;;;;7.22;4.55;;;;;;;;;;5028929;28;20029;-81
2022/05/20 13:02:58;;;;;;;7.70;4.45;;;;;;;;;;5041386;28;20073;-80
2022/05/20 13:05:24;;;;;;;;;;;;;;;;;;5032849;28;20017;-83
2022/05/20 13:07:52;;;;;;;6.55;4.53;;;;;;;;;;5034680;28;19909;-81
2022/05/20 13:10:22;;;;;;;6.45;4.53;;;;;;;;;;5028673;28;20034;-83
2022/05/20 13:12:52;;;;;;;6.70;5.00;;;;;;;;;;5040437;28;20022;-82
2022/05/20 13:15:22;;;;;;;6.80;4.80;;;;;;;;;;5038751;28;20025;-82
2022/05/20 13:17:58;;;;;;;7.00;4.90;;;;;;;;;;5029913;28;20026;-82
2022/05/20 13:20:25;;;;;;;6.95;4.60;;;;;;;;;;5028033;28;20341;-82
2022/05/20 13:22:51;;;;;;;8.02;5.10;;;;;;;;;;5031658;28;20048;-81
2022/05/20 13:25:18;;;;;;;6.93;5.22;;;;;;;;;;5058838;28;20028;-80
2022/05/20 13:27:45;;;;;;;6.28;5.10;;;;;;;;;;5058300;28;20025;-80
2022/05/20 13:30:17;;;;;;;6.97;5.00;;;;;;;;;;5062574;28;20024;-81
2022/05/20 13:32:43;;;;;;;7.80;4.95;;;;;;;;;;5024506;28;20053;-81
2022/05/20 13:35:10;;;;;;;10.82;4.88;;;;;;;;;;5036213;28;20058;-82
2022/05/20 13:37:45;;;;;;;6.72;4.60;;;;;;;;;;5023695;28;20029;-80
2022/05/20 13:40:13;;;;;;;9.15;5.05;;;;;;;;;;5028805;28;20060;-80
2022/05/20 13:42:41;;;;;;;7.68;5.13;;;;;;;;;;5031287;28;20025;-81
2022/05/20 13:45:09;;;;;;;7.90;5.00;;;;;;;;;;5041962;28;20030;-80
2022/05/20 13:50:21;;;;;;;7.47;5.20;;;;;;;;;;5025183;28;20045;-81
2022/05/20 13:52:49;;;;;;;7.95;5.20;;;;;;;;;;5026990;28;20096;-80
2022/05/20 13:55:16;;;;;;;7.72;4.60;;;;;;;;;;5023097;28;20030;-81
2022/05/20 13:57:43;;;;;;;7.55;5.45;;;;;;;;;;5025539;28;20029;-83
2022/05/20 14:00:10;;;;;;;7.55;4.70;;;;;;;;;;5026834;28;20026;-80
2022/05/20 14:02:38;;;;;;;6.55;4.63;;;;;;;;;;5029331;28;20048;-83
2022/05/20 14:05:15;;;;;;;7.72;5.22;;;;;;;;;;5040959;28;20048;-83
2022/05/20 14:07:46;;;;;;;7.95;5.22;;;;;;;;;;5023215;28;20033;-80
2022/05/20 14:10:13;;;;;;;7.90;5.07;;;;;;;;;;5022827;28;20487;-83
2022/05/20 14:18:49;;;;;;;7.05;4.97;;;;;;;;;;5048515;28;20433;-81
2022/05/20 14:21:19;;;;;;;6.95;5.32;;;;;;;;;;5036773;28;20101;-81
2022/05/20 14:23:46;;;;;;;7.72;5.28;;;;;;;;;;5025931;28;20034;-81
2022/05/20 14:26:18;;;;;;;7.82;6.00;;;;;;;;;;5032585;28;20021;-81
2022/05/20 14:28:46;;;;;;;7.50;5.57;;;;;;;;;;5031896;28;20022;-81
2022/05/20 14:31:19;;;;;;;8.10;5.72;;;;;;;;;;5025896;28;20570;-82
2022/05/20 14:33:47;;;;;;;7.20;5.20;;;;;;;;;;5030402;28;20120;-80
2022/05/20 14:36:14;;;;;;;7.18;5.90;;;;;;;;;;5041997;28;20026;-80
2022/05/20 14:38:42;;;;;;;7.30;5.55;;;;;;;;;;5035239;28;20038;-80
2022/05/20 14:41:14;;;;;;;6.50;5.55;;;;;;;;;;5021661;28;20089;-80
2022/05/20 14:43:47;;;;;;;7.32;5.55;;;;;;;;;;5022310;28;20054;-80
2022/05/20 14:47:14;;;;;;;7.45;5.50;;;;;;;;;;5023979;28;20030;-81
2022/05/20 14:49:07;;;;;;;7.47;5.53;;;;;;;;;;5027628;28;20112;-82
2022/05/20 14:51:33;;;;;;;5.90;5.15;;;;;;;;;;5023394;28;20021;-81
2022/05/20 14:54:02;;;;;;;8.05;5.13;;;;;;;;;;5035257;28;20303;-81
2022/05/20 14:56:36;;;;;;;6.75;5.30;;;;;;;;;;5041271;28;20099;-80
2022/05/20 14:59:02;;;;;;;6.78;5.40;;;;;;;;;;5020689;28;20053;-82
2022/05/20 15:01:29;;;;;;;7.18;4.90;;;;;;;;;;5024859;28;20097;-83
2022/05/20 15:03:55;;;;;;;6.60;4.97;;;;;;;;;;5028734;28;20054;-82
2022/05/20 15:06:25;;;;;;;7.40;4.95;;;;;;;;;;5040547;28;20025;-81
2022/05/20 15:08:51;;;;;;;7.60;5.00;;;;;;;;;;5040355;28;20029;-82
2022/05/20 15:11:20;;;;;;;7.88;4.95;;;;;;;;;;5040713;28;20479;-83
2022/05/20 15:13:47;;;;;;;7.75;4.57;;;;;;;;;;5039852;28;20032;-82
2022/05/20 15:16:13;;;;;;;7.07;4.70;;;;;;;;;;5040639;28;20539;-80
2022/05/20 15:18:39;;;;;;;8.85;5.10;;;;;;;;;;5039859;28;20041;-81
2022/05/20 15:21:11;;;;;;;7.20;4.75;;;;;;;;;;5027990;28;20048;-79
2022/05/20 15:23:38;;;;;;;7.13;4.50;;;;;;;;;;5030981;28;20052;-80
2022/05/20 15:26:07;;;;;;;6.80;5.10;;;;;;;;;;5018046;28;20396;-82
2022/05/20 15:28:49;;;;;;;7.47;4.50;;;;;;;;;;5018795;28;20129;-82
2022/05/20 15:36:50;;;;;;;6.75;4.90;;;;;;;;;;5024627;28;20067;-81
2022/05/20 15:39:23;;;;;;;8.48;5.85;;;;;;;;;;5036835;28;20392;-81
2022/05/20 15:41:50;;;;;;;6.78;4.80;;;;;;;;;;5028144;28;20044;-83
2022/05/20 15:44:16;;;;;;;7.25;4.68;;;;;;;;;;5035457;28;20467;-80
2022/05/20 15:46:42;;;;;;;6.22;4.80;;;;;;;;;;5033394;28;20022;-82